Time;durP1;ratioP1;P1;durP2;ratioP2;P2;SDS_P1;SDS_P2;PMS_P1;PMS_P2;Temp;Humidity;BMP_temperature;BMP_pressure;BME280_temperature;BME280_humidity;BME280_pressure;Samples;Min_cycle;Max_cycle;Signal;HPM_P1;HPM_P2
2024/02/15 00:00:06;;;;;;;8.52;5.13;;;24.50;99.90;;;;;;5054104;28;20468;-56
2024/02/15 00:02:32;;;;;;;6.80;4.13;;;24.50;99.90;;;;;;5053844;28;20049;-56
2024/02/15 00:04:58;;;;;;;7.68;4.78;;;24.50;99.90;;;;;;5053995;28;20146;-56
2024/02/15 00:07:24;;;;;;;6.70;4.63;;;24.50;99.90;;;;;;5053886;28;20037;-56
2024/02/15 00:09:49;;;;;;;5.95;4.45;;;24.50;99.90;;;;;;5053968;28;20013;-56
2024/02/15 00:12:15;;;;;;;6.30;4.50;;;24.50;99.90;;;;;;5053829;28;20067;-57
2024/02/15 00:14:42;;;;;;;7.45;4.88;;;24.50;99.90;;;;;;5053899;28;20021;-56
2024/02/15 00:17:08;;;;;;;6.78;4.60;;;24.50;99.90;;;;;;5052966;28;20082;-56
2024/02/15 00:19:34;;;;;;;6.22;4.15;;;24.50;99.90;;;;;;5053696;28;20029;-57
2024/02/15 00:21:59;;;;;;;6.80;4.38;;;24.50;99.90;;;;;;5053555;28;20025;-56
2024/02/15 00:24:25;;;;;;;9.45;4.50;;;24.50;99.90;;;;;;5053695;28;20033;-56
2024/02/15 00:26:51;;;;;;;7.97;4.65;;;24.50;99.90;;;;;;5053430;28;20111;-56
2024/02/15 00:29:18;;;;;;;6.88;4.03;;;24.40;99.90;;;;;;5053439;28;20028;-57
2024/02/15 00:31:43;;;;;;;6.47;4.27;;;24.40;99.90;;;;;;5052533;28;20025;-57
2024/02/15 00:34:09;;;;;;;5.75;4.10;;;24.40;99.90;;;;;;5053653;28;20031;-56
2024/02/15 00:36:35;;;;;;;5.95;4.13;;;24.40;99.90;;;;;;5053444;28;20028;-57
2024/02/15 00:39:01;;;;;;;7.70;4.15;;;24.40;99.90;;;;;;5053406;28;20025;-57
2024/02/15 00:41:27;;;;;;;4.90;3.67;;;24.40;99.90;;;;;;5051024;28;20094;-57
2024/02/15 00:43:53;;;;;;;5.65;3.88;;;24.40;99.90;;;;;;5052912;28;20040;-57
2024/02/15 00:46:19;;;;;;;6.63;3.92;;;24.40;99.90;;;;;;5052942;28;20025;-56
2024/02/15 00:48:45;;;;;;;5.38;3.92;;;24.40;99.90;;;;;;5052959;28;20481;-58
2024/02/15 00:51:11;;;;;;;6.00;4.28;;;24.40;99.90;;;;;;5053164;28;20025;-57
2024/02/15 00:53:36;;;;;;;5.28;4.03;;;24.30;99.90;;;;;;5053018;28;20024;-57
2024/02/15 00:56:02;;;;;;;6.22;4.05;;;24.30;99.90;;;;;;5052243;28;20431;-57
2024/02/15 00:58:28;;;;;;;5.85;4.03;;;24.30;99.90;;;;;;5051673;28;20020;-56
2024/02/15 01:00:54;;;;;;;5.45;3.80;;;24.30;99.90;;;;;;5052490;28;20037;-56
2024/02/15 01:03:20;;;;;;;8.25;4.18;;;24.30;99.90;;;;;;5052858;28;20021;-57
2024/02/15 01:05:46;;;;;;;6.93;3.92;;;24.30;99.90;;;;;;5053025;28;20025;-57
2024/02/15 01:08:11;;;;;;;5.93;3.60;;;24.30;99.90;;;;;;5053094;28;20075;-56
2024/02/15 01:10:38;;;;;;;7.18;4.18;;;24.30;99.90;;;;;;5052657;28;20396;-56
2024/02/15 01:13:03;;;;;;;5.85;4.13;;;24.30;99.90;;;;;;5051380;28;20025;-57
2024/02/15 01:15:29;;;;;;;6.10;3.95;;;24.30;99.90;;;;;;5051228;28;20074;-56
2024/02/15 01:17:55;;;;;;;6.05;3.95;;;24.20;99.90;;;;;;5051485;28;20021;-57
2024/02/15 01:20:21;;;;;;;6.00;3.80;;;24.20;99.90;;;;;;5052653;28;20477;-56
2024/02/15 01:22:47;;;;;;;5.25;4.03;;;24.20;99.90;;;;;;5051293;28;20025;-56
2024/02/15 01:25:15;;;;;;;5.43;3.55;;;24.20;99.90;;;;;;5052723;28;20074;-56
2024/02/15 01:27:41;;;;;;;6.80;4.07;;;24.20;99.90;;;;;;5052136;28;20029;-56
2024/02/15 01:30:08;;;;;;;6.22;3.60;;;24.20;99.90;;;;;;5052531;28;20017;-57
2024/02/15 01:32:34;;;;;;;4.97;3.10;;;24.20;99.90;;;;;;5052478;28;20583;-56
2024/02/15 01:35:00;;;;;;;6.10;4.00;;;24.20;99.90;;;;;;5050932;28;20036;-57
2024/02/15 01:37:25;;;;;;;6.15;4.05;;;24.20;99.90;;;;;;5052312;28;20021;-56
2024/02/15 01:39:52;;;;;;;6.60;3.75;;;24.20;99.90;;;;;;5052179;28;20102;-56
2024/02/15 01:42:18;;;;;;;5.63;3.90;;;24.20;99.90;;;;;;5052590;28;20614;-56
2024/02/15 01:44:44;;;;;;;5.28;3.67;;;24.20;99.90;;;;;;5052537;28;20330;-56
2024/02/15 01:47:11;;;;;;;5.18;3.67;;;24.20;99.90;;;;;;5052181;28;20021;-56
2024/02/15 01:49:37;;;;;;;5.32;3.58;;;24.20;99.90;;;;;;5052285;28;20021;-56
2024/02/15 01:52:08;;;;;;;4.55;3.15;;;24.10;99.90;;;;;;5052214;28;20025;-56
2024/02/15 01:54:35;;;;;;;5.80;3.65;;;24.10;99.90;;;;;;5052113;28;20035;-56
2024/02/15 01:57:02;;;;;;;;;;;24.10;99.90;;;;;;5052624;28;20017;-56
2024/02/15 01:59:30;;;;;;;6.28;3.30;;;24.10;99.90;;;;;;5051997;28;20283;-57
2024/02/15 02:01:56;;;;;;;4.78;3.30;;;24.10;99.90;;;;;;5052498;28;20037;-56
2024/02/15 02:04:21;;;;;;;4.68;3.47;;;24.10;99.90;;;;;;5052162;28;20079;-56
2024/02/15 02:06:47;;;;;;;6.82;4.00;;;24.10;99.90;;;;;;5052214;28;20489;-56
2024/02/15 02:09:14;;;;;;;4.88;3.17;;;24.10;99.90;;;;;;5050606;28;20021;-56
2024/02/15 02:11:41;;;;;;;6.15;3.95;;;24.10;99.90;;;;;;5051912;28;20025;-56
2024/02/15 02:14:07;;;;;;;8.27;4.20;;;24.10;99.90;;;;;;5051969;28;20033;-56
2024/02/15 02:16:33;;;;;;;7.18;3.55;;;24.10;99.90;;;;;;5052082;28;20487;-56
2024/02/15 02:18:59;;;;;;;5.07;3.28;;;24.00;99.90;;;;;;5051820;28;20025;-56
2024/02/15 02:21:26;;;;;;;5.47;3.42;;;24.00;99.90;;;;;;5051783;28;20044;-56
2024/02/15 02:23:58;;;;;;;4.88;3.65;;;24.00;99.90;;;;;;5050638;28;20477;-57
2024/02/15 02:26:25;;;;;;;4.63;3.60;;;24.00;99.90;;;;;;5051843;28;20473;-57
2024/02/15 02:28:54;;;;;;;5.07;3.03;;;24.00;99.90;;;;;;5047879;28;20098;-57
2024/02/15 02:31:21;;;;;;;4.90;3.42;;;24.00;99.90;;;;;;5044953;28;20030;-57
2024/02/15 02:33:58;;;;;;;5.90;3.28;;;24.00;99.90;;;;;;5047248;28;20381;-58
2024/02/15 02:36:26;;;;;;;4.87;3.37;;;24.00;99.90;;;;;;5051186;28;20028;-58
2024/02/15 02:38:52;;;;;;;5.72;3.60;;;24.00;99.90;;;;;;5051427;28;20104;-58
2024/02/15 02:41:23;;;;;;;6.03;3.53;;;24.00;99.90;;;;;;5055691;28;20024;-58
2024/02/15 02:43:49;;;;;;;4.63;3.33;;;24.00;99.90;;;;;;5053702;28;20480;-59
2024/02/15 02:46:15;;;;;;;4.97;3.58;;;24.00;99.90;;;;;;5055085;28;20027;-59
2024/02/15 02:48:41;;;;;;;5.22;3.00;;;24.00;99.90;;;;;;5055058;28;20028;-56
2024/02/15 02:51:08;;;;;;;5.95;3.25;;;24.00;99.90;;;;;;5054828;28;20009;-55
2024/02/15 02:53:33;;;;;;;5.82;3.60;;;24.00;99.90;;;;;;5055226;28;20029;-56
2024/02/15 02:55:59;;;;;;;6.38;3.25;;;24.00;99.90;;;;;;5054833;28;20032;-56
2024/02/15 02:58:25;;;;;;;6.10;3.45;;;24.00;99.90;;;;;;5055090;28;20017;-56
2024/02/15 03:00:52;;;;;;;5.82;3.58;;;24.00;99.90;;;;;;5054983;28;20032;-55
2024/02/15 03:03:22;;;;;;;6.82;3.28;;;23.90;99.90;;;;;;5054978;28;20021;-55
2024/02/15 03:05:48;;;;;;;4.95;3.60;;;24.00;99.90;;;;;;5054968;28;20029;-56
2024/02/15 03:08:17;;;;;;;4.35;2.72;;;24.00;99.90;;;;;;5054088;28;20051;-56
2024/02/15 03:10:43;;;;;;;5.53;2.95;;;24.00;99.90;;;;;;5053530;28;20025;-56
2024/02/15 03:13:09;;;;;;;6.00;2.97;;;23.90;99.90;;;;;;5054655;28;20108;-56
2024/02/15 03:15:38;;;;;;;7.47;4.00;;;24.00;99.90;;;;;;5053190;28;20070;-55
2024/02/15 03:18:08;;;;;;;5.70;3.22;;;23.90;99.90;;;;;;5054748;28;20373;-56
2024/02/15 03:20:36;;;;;;;5.15;2.97;;;23.90;99.90;;;;;;5054609;28;20041;-57
2024/02/15 03:23:02;;;;;;;5.88;3.13;;;24.00;99.90;;;;;;5053186;28;20029;-56
2024/02/15 03:25:29;;;;;;;7.00;3.17;;;24.00;99.90;;;;;;5054360;28;20055;-56
2024/02/15 03:27:56;;;;;;;5.00;2.88;;;24.00;99.90;;;;;;5054704;28;20044;-56
2024/02/15 03:30:26;;;;;;;;;;;24.00;99.90;;;;;;5053152;28;20021;-56
2024/02/15 03:32:55;;;;;;;5.60;3.20;;;24.00;99.90;;;;;;5054501;28;19909;-56
2024/02/15 03:35:22;;;;;;;4.32;2.35;;;24.00;99.90;;;;;;5054136;28;20029;-55
2024/02/15 03:37:51;;;;;;;6.75;3.15;;;23.90;99.90;;;;;;5053845;28;20399;-56
2024/02/15 03:40:19;;;;;;;5.40;2.88;;;23.90;99.90;;;;;;5054080;28;20072;-58
2024/02/15 03:42:46;;;;;;;4.55;2.92;;;23.90;99.90;;;;;;5054376;28;20017;-58
2024/02/15 03:45:12;;;;;;;9.85;3.05;;;23.90;99.90;;;;;;5052394;28;20408;-56
2024/02/15 03:47:38;;;;;;;4.45;2.92;;;23.90;99.90;;;;;;5054173;28;20124;-55
2024/02/15 03:50:11;;;;;;;4.82;2.78;;;23.90;99.90;;;;;;5053706;28;20021;-56
2024/02/15 03:52:38;;;;;;;5.13;2.92;;;23.90;99.90;;;;;;5053700;28;20385;-56
2024/02/15 03:55:05;;;;;;;6.13;3.08;;;23.90;99.90;;;;;;5052708;28;20017;-55
2024/02/15 03:57:33;;;;;;;5.07;2.53;;;23.90;99.90;;;;;;5053744;28;20065;-54
2024/02/15 04:00:00;;;;;;;4.10;2.40;;;23.90;99.90;;;;;;5052153;28;20017;-54
2024/02/15 04:02:30;;;;;;;4.55;2.95;;;23.90;99.90;;;;;;5081080;22;20052;-46
2024/02/15 04:04:56;;;;;;;5.13;2.80;;;23.90;99.90;;;;;;5073832;28;20121;-49
2024/02/15 04:07:26;;;;;;;4.13;2.47;;;23.90;99.90;;;;;;5073094;28;20155;-49
2024/02/15 04:09:53;;;;;;;4.82;2.38;;;23.90;99.90;;;;;;5073965;28;20025;-49
2024/02/15 04:12:18;;;;;;;5.65;2.33;;;23.80;99.90;;;;;;5073607;28;20077;-50
2024/02/15 04:14:45;;;;;;;4.32;2.80;;;23.80;99.90;;;;;;5073508;28;20029;-49
2024/02/15 04:17:15;;;;;;;6.05;2.70;;;23.80;99.90;;;;;;5072913;28;20025;-49
2024/02/15 04:19:41;;;;;;;5.32;2.70;;;23.80;99.90;;;;;;5065964;28;20060;-49
2024/02/15 04:22:10;;;;;;;8.32;3.08;;;23.80;99.90;;;;;;5053337;28;20056;-49
2024/02/15 04:24:39;;;;;;;5.13;2.53;;;23.80;99.90;;;;;;5052784;28;20021;-49
2024/02/15 04:27:12;;;;;;;3.47;2.45;;;23.80;99.90;;;;;;5053373;28;20021;-49
2024/02/15 04:29:41;;;;;;;4.30;2.75;;;23.80;99.90;;;;;;5052807;28;20490;-49
2024/02/15 04:32:11;;;;;;;3.83;2.75;;;23.80;99.90;;;;;;5053652;28;20027;-49
2024/02/15 04:34:37;;;;;;;4.93;2.78;;;23.80;99.90;;;;;;5053490;28;20025;-49
2024/02/15 04:37:06;;;;;;;6.18;2.63;;;23.70;99.90;;;;;;5053440;28;20036;-49
2024/02/15 04:39:33;;;;;;;5.50;2.90;;;23.70;99.90;;;;;;5053774;28;20334;-49
2024/02/15 04:42:00;;;;;;;6.60;2.85;;;23.70;99.90;;;;;;5053693;28;20451;-49
2024/02/15 04:44:27;;;;;;;7.77;2.83;;;23.70;99.90;;;;;;5053462;28;20021;-49
2024/02/15 04:46:53;;;;;;;3.33;2.50;;;23.70;99.90;;;;;;5051936;28;20143;-49
2024/02/15 04:49:20;;;;;;;6.75;2.70;;;23.70;99.90;;;;;;5053242;28;20025;-49
2024/02/15 04:51:47;;;;;;;7.25;2.35;;;23.70;99.90;;;;;;5052053;28;20056;-50
2024/02/15 04:54:13;;;;;;;5.68;2.63;;;23.70;99.90;;;;;;5053163;28;20024;-49
2024/02/15 04:56:40;;;;;;;6.55;2.55;;;23.60;99.90;;;;;;5053387;28;20029;-49
2024/02/15 04:59:15;;;;;;;9.68;3.50;;;23.70;99.90;;;;;;5052978;28;20025;-49
2024/02/15 05:01:45;;;;;;;4.07;2.35;;;23.60;99.90;;;;;;5052892;28;20049;-49
2024/02/15 05:04:12;;;;;;;5.38;3.00;;;23.60;99.90;;;;;;5052896;28;20055;-50
2024/02/15 05:06:38;;;;;;;3.92;2.58;;;23.60;99.90;;;;;;5052888;28;20104;-50
2024/02/15 05:09:09;;;;;;;7.55;3.28;;;23.60;99.90;;;;;;5052809;28;20118;-49
2024/02/15 05:11:37;;;;;;;6.55;2.35;;;23.60;99.90;;;;;;5052668;28;20017;-49
2024/02/15 05:14:07;;;;;;;4.13;2.78;;;23.60;99.90;;;;;;5052836;28;20028;-49
2024/02/15 05:16:38;;;;;;;5.00;2.35;;;23.60;99.90;;;;;;5052737;28;20096;-50
2024/02/15 05:19:05;;;;;;;3.75;2.00;;;23.60;99.90;;;;;;5052750;28;20049;-49
2024/02/15 05:21:31;;;;;;;5.65;2.70;;;23.50;99.90;;;;;;5053005;28;20028;-49
2024/02/15 05:23:57;;;;;;;10.13;2.97;;;23.50;99.90;;;;;;5053040;28;20033;-50
2024/02/15 05:26:23;;;;;;;6.13;2.28;;;23.50;99.90;;;;;;5052425;28;20095;-50
2024/02/15 05:28:52;;;;;;;7.00;2.15;;;23.50;99.90;;;;;;5052923;28;20068;-50
2024/02/15 05:31:25;;;;;;;4.68;2.25;;;23.50;99.90;;;;;;5052313;28;20013;-50
2024/02/15 05:33:52;;;;;;;4.45;2.72;;;23.50;99.90;;;;;;5052444;28;20476;-49
2024/02/15 05:36:22;;;;;;;4.95;2.50;;;23.50;99.90;;;;;;5052608;28;20067;-50
2024/02/15 05:38:54;;;;;;;5.78;2.58;;;23.50;99.90;;;;;;5051117;28;20033;-50
2024/02/15 05:41:21;;;;;;;6.40;2.15;;;23.40;99.90;;;;;;5052301;28;20025;-50
2024/02/15 05:43:52;;;;;;;5.10;2.20;;;23.40;99.90;;;;;;5052307;28;20612;-49
2024/02/15 05:46:21;;;;;;;16.05;2.50;;;23.40;99.90;;;;;;5052210;28;20103;-50
2024/02/15 05:48:47;;;;;;;7.55;2.58;;;23.40;99.90;;;;;;5052267;28;20123;-49
2024/02/15 05:51:12;;;;;;;4.63;2.30;;;23.40;99.90;;;;;;5052284;28;20013;-50
2024/02/15 05:53:38;;;;;;;6.68;2.72;;;23.40;99.90;;;;;;5053000;28;20033;-50
2024/02/15 05:56:08;;;;;;;8.40;2.55;;;23.40;99.90;;;;;;5055042;28;20071;-50
2024/02/15 05:58:34;;;;;;;9.45;2.95;;;23.40;99.90;;;;;;5063485;28;20041;-50
2024/02/15 06:01:06;;;;;;;8.93;2.40;;;23.40;99.90;;;;;;5063690;28;20033;-50
2024/02/15 06:03:33;;;;;;;9.52;2.22;;;23.40;99.90;;;;;;5051109;28;20147;-50
2024/02/15 06:06:01;;;;;;;;;;;23.40;99.90;;;;;;5050815;28;20048;-50
2024/02/15 06:08:30;;;;;;;5.93;2.33;;;23.30;99.90;;;;;;5051961;28;20423;-50
2024/02/15 06:10:57;;;;;;;7.15;2.22;;;23.30;99.90;;;;;;5049828;28;20037;-50
2024/02/15 06:13:23;;;;;;;6.00;2.25;;;23.30;99.90;;;;;;5052031;28;20140;-50
2024/02/15 06:15:52;;;;;;;4.50;2.53;;;23.30;99.90;;;;;;5055281;28;20025;-50
2024/02/15 06:18:24;;;;;;;4.93;2.28;;;23.30;99.90;;;;;;5056097;28;20021;-50
2024/02/15 06:20:51;;;;;;;3.75;1.90;;;23.30;99.90;;;;;;5055933;28;20025;-50
2024/02/15 06:23:18;;;;;;;5.68;2.08;;;23.30;99.90;;;;;;5055961;28;20048;-50
2024/02/15 06:25:50;;;;;;;4.43;2.10;;;23.30;99.90;;;;;;5055966;28;20013;-50
2024/02/15 06:39:38;;;;;;;4.20;2.00;;;23.30;99.90;;;;;;5055967;28;20336;-50
2024/02/15 06:42:02;;;;;;;5.65;2.05;;;23.20;99.90;;;;;;5055830;28;20544;-50
2024/02/15 06:44:29;;;;;;;5.13;1.98;;;23.20;99.90;;;;;;5055555;28;20104;-51
2024/02/15 06:46:55;;;;;;;11.10;2.67;;;23.20;99.90;;;;;;5055478;28;20067;-50
2024/02/15 06:49:21;;;;;;;5.53;2.10;;;23.20;99.90;;;;;;5055468;28;20021;-50
2024/02/15 06:51:50;;;;;;;7.38;2.25;;;23.20;99.90;;;;;;5055368;28;20025;-50
2024/02/15 06:54:18;;;;;;;6.75;2.13;;;23.20;99.90;;;;;;5055403;28;20052;-50
2024/02/15 06:56:46;;;;;;;6.13;2.15;;;23.20;99.90;;;;;;5055243;28;20017;-50
2024/02/15 06:59:16;;;;;;;5.43;2.30;;;23.20;99.90;;;;;;5055236;28;20082;-50
2024/02/15 07:01:42;;;;;;;6.78;1.98;;;23.20;99.90;;;;;;5055206;28;20041;-50
2024/02/15 07:04:10;;;;;;;3.25;2.05;;;23.10;99.90;;;;;;5055455;28;20473;-50
2024/02/15 07:06:37;;;;;;;7.50;2.47;;;23.20;99.90;;;;;;5055332;28;20040;-51
2024/02/15 07:09:06;;;;;;;3.63;1.95;;;23.20;99.90;;;;;;5053851;28;20124;-51
2024/02/15 07:11:35;;;;;;;5.35;2.50;;;23.20;99.90;;;;;;5055045;28;20161;-50
2024/02/15 07:14:02;;;;;;;4.07;1.95;;;23.10;99.90;;;;;;5054975;28;20025;-50
2024/02/15 07:16:27;;;;;;;5.57;2.60;;;23.10;99.90;;;;;;5054950;28;20032;-51
2024/02/15 07:18:53;;;;;;;7.50;2.10;;;23.10;99.90;;;;;;5054907;28;20025;-50
2024/02/15 07:21:29;;;;;;;8.52;2.47;;;23.10;99.90;;;;;;5055289;28;20510;-50
2024/02/15 07:23:55;;;;;;;4.53;2.03;;;23.10;99.90;;;;;;5054831;28;20036;-50
2024/02/15 07:26:25;;;;;;;6.57;2.30;;;23.10;99.90;;;;;;5054434;28;20013;-50
2024/02/15 07:28:53;;;;;;;4.05;2.30;;;23.10;99.90;;;;;;5054739;28;20052;-50
2024/02/15 07:31:22;;;;;;;3.80;1.98;;;23.10;99.90;;;;;;5054627;28;20025;-50
2024/02/15 07:33:50;;;;;;;4.40;2.20;;;23.10;99.90;;;;;;5054596;28;20025;-50
2024/02/15 07:36:23;;;;;;;7.13;2.45;;;23.10;99.90;;;;;;5054548;28;20025;-50
2024/02/15 07:38:53;;;;;;;8.25;2.85;;;23.10;99.90;;;;;;5054715;28;20031;-50
2024/02/15 07:41:22;;;;;;;5.45;2.30;;;23.10;99.90;;;;;;5054455;28;20033;-50
2024/02/15 07:43:48;;;;;;;3.40;1.60;;;23.10;99.90;;;;;;5054424;28;20481;-50
2024/02/15 07:46:16;;;;;;;4.97;2.00;;;23.10;99.90;;;;;;5054338;28;20078;-51
2024/02/15 07:48:45;;;;;;;5.60;2.20;;;23.10;99.90;;;;;;5053066;28;20033;-50
2024/02/15 07:51:12;;;;;;;3.47;2.20;;;23.10;99.90;;;;;;5054572;28;20021;-49
2024/02/15 07:53:40;;;;;;;;;;;23.10;99.90;;;;;;5054966;28;20051;-49
2024/02/15 07:56:06;;;;;;;6.07;2.63;;;23.10;99.90;;;;;;5054243;28;20000;-49
2024/02/15 07:58:31;;;;;;;5.32;2.22;;;23.10;99.90;;;;;;5053993;28;20112;-49
2024/02/15 08:00:59;;;;;;;4.85;2.10;;;23.00;99.90;;;;;;5053829;28;20112;-49
2024/02/15 08:03:26;;;;;;;;;;;23.10;99.90;;;;;;5054327;28;20090;-49
2024/02/15 08:05:52;;;;;;;4.07;2.22;;;23.10;99.90;;;;;;5054069;28;19905;-49
2024/02/15 08:08:18;;;;;;;5.35;2.60;;;23.10;99.90;;;;;;5053878;28;20048;-49
2024/02/15 08:10:45;;;;;;;3.05;1.83;;;23.10;99.90;;;;;;5053744;28;20029;-49
2024/02/15 08:13:10;;;;;;;6.25;2.20;;;23.00;99.90;;;;;;5052670;28;20029;-49
2024/02/15 08:15:36;;;;;;;4.75;2.22;;;23.10;99.90;;;;;;5053711;28;20235;-49
2024/02/15 08:18:05;;;;;;;3.33;1.75;;;23.00;99.90;;;;;;5053726;28;20029;-49
2024/02/15 08:20:31;;;;;;;6.45;2.38;;;23.10;99.90;;;;;;5053734;28;20017;-49
2024/02/15 08:22:58;;;;;;;5.30;2.13;;;23.10;99.90;;;;;;5053734;28;20027;-49
2024/02/15 08:25:25;;;;;;;5.20;2.33;;;23.00;99.90;;;;;;5053660;28;20021;-50
2024/02/15 08:27:51;;;;;;;3.50;2.08;;;23.10;99.90;;;;;;5053522;28;20037;-50
2024/02/15 08:30:17;;;;;;;5.70;3.13;;;23.10;99.90;;;;;;5053479;28;20028;-50
2024/02/15 08:32:45;;;;;;;4.05;2.42;;;23.00;99.90;;;;;;5053824;28;20090;-50
2024/02/15 08:35:12;;;;;;;;;;;23.00;99.90;;;;;;5054191;28;20013;-49
2024/02/15 08:37:42;;;;;;;5.85;2.58;;;23.10;99.90;;;;;;5052457;28;19905;-49
2024/02/15 08:40:14;;;;;;;7.13;2.78;;;23.10;99.90;;;;;;5053211;28;20029;-49
2024/02/15 08:42:44;;;;;;;6.82;2.55;;;23.10;99.90;;;;;;5053405;28;20087;-49
2024/02/15 08:45:10;;;;;;;7.95;2.50;;;23.00;99.90;;;;;;5053144;28;20036;-50
2024/02/15 08:47:40;;;;;;;4.13;2.05;;;23.10;99.90;;;;;;5052998;28;20407;-50
2024/02/15 08:50:11;;;;;;;4.88;2.10;;;23.00;99.90;;;;;;5053172;28;20020;-50
2024/02/15 08:52:37;;;;;;;6.05;2.40;;;23.10;99.90;;;;;;5053086;28;20495;-50
2024/02/15 08:55:09;;;;;;;3.65;2.28;;;23.00;99.90;;;;;;5052921;28;20028;-49
2024/02/15 08:57:40;;;;;;;7.72;2.47;;;23.00;99.90;;;;;;5052954;28;20028;-49
2024/02/15 09:00:13;;;;;;;5.45;2.47;;;23.10;99.90;;;;;;5052747;28;20619;-50
2024/02/15 09:02:51;;;;;;;7.18;3.00;;;23.10;99.90;;;;;;5052745;28;20040;-49
2024/02/15 09:05:18;;;;;;;6.80;2.60;;;23.10;99.90;;;;;;5052953;28;20036;-49
2024/02/15 09:07:48;;;;;;;5.63;2.15;;;23.10;99.90;;;;;;5052972;28;20036;-49
2024/02/15 09:10:17;;;;;;;6.63;2.25;;;23.10;99.90;;;;;;5052821;28;20386;-50
2024/02/15 09:12:44;;;;;;;7.63;3.13;;;23.10;99.90;;;;;;5052213;28;20039;-50
2024/02/15 09:15:10;;;;;;;7.45;3.00;;;23.10;99.90;;;;;;5054175;28;20021;-50
2024/02/15 09:17:39;;;;;;;5.68;2.47;;;23.10;99.90;;;;;;5052381;28;20127;-49
2024/02/15 09:20:14;;;;;;;4.95;2.40;;;23.10;99.90;;;;;;5066064;28;20519;-50
2024/02/15 09:22:46;;;;;;;4.10;2.10;;;23.10;99.90;;;;;;5072291;28;20098;-50
2024/02/15 09:25:13;;;;;;;3.95;2.30;;;23.10;99.90;;;;;;5072364;28;20012;-50
2024/02/15 09:27:39;;;;;;;6.78;3.40;;;23.10;99.90;;;;;;5071855;28;20385;-50
2024/02/15 09:30:09;;;;;;;6.90;2.25;;;23.10;99.90;;;;;;5072122;28;20530;-50
2024/02/15 09:32:35;;;;;;;4.53;2.25;;;23.10;99.90;;;;;;5071526;28;20020;-49
2024/02/15 09:35:01;;;;;;;4.90;2.33;;;23.20;99.90;;;;;;5072198;28;20055;-50
2024/02/15 09:37:28;;;;;;;4.28;2.80;;;23.20;99.90;;;;;;5070892;28;20042;-49
2024/02/15 09:39:58;;;;;;;5.38;2.15;;;23.20;99.90;;;;;;5071877;28;20036;-50
2024/02/15 09:42:25;;;;;;;7.05;2.67;;;23.20;99.90;;;;;;5072198;28;20016;-50
2024/02/15 09:44:51;;;;;;;5.90;2.53;;;23.20;99.90;;;;;;5072279;28;20036;-50
2024/02/15 09:47:19;;;;;;;6.47;2.70;;;23.20;99.90;;;;;;5071018;28;20040;-49
2024/02/15 09:49:45;;;;;;;7.75;2.35;;;23.20;99.90;;;;;;5072084;28;20024;-50
2024/02/15 09:52:15;;;;;;;6.30;2.60;;;23.20;99.90;;;;;;5072168;28;20028;-50
2024/02/15 09:54:45;;;;;;;6.18;2.80;;;23.20;99.90;;;;;;5071992;28;20024;-49
2024/02/15 09:57:11;;;;;;;4.22;2.40;;;23.20;99.90;;;;;;5071965;28;20099;-49
2024/02/15 09:59:41;;;;;;;5.82;2.80;;;23.20;99.90;;;;;;5071016;28;20384;-50
2024/02/15 10:02:10;;;;;;;6.90;2.78;;;23.20;99.90;;;;;;5071797;28;20040;-50
2024/02/15 10:04:39;;;;;;;5.70;2.63;;;23.20;99.90;;;;;;5072132;28;20021;-50
2024/02/15 10:07:05;;;;;;;7.00;2.85;;;23.20;99.90;;;;;;5072011;28;20032;-50
2024/02/15 10:09:31;;;;;;;5.65;2.60;;;23.20;99.90;;;;;;5072073;28;20536;-50
2024/02/15 10:11:59;;;;;;;4.72;2.13;;;23.20;99.90;;;;;;5072061;28;20056;-50
2024/02/15 10:14:26;;;;;;;6.97;1.92;;;23.20;99.90;;;;;;5072019;28;20052;-50
2024/02/15 10:16:56;;;;;;;6.10;2.60;;;23.30;99.90;;;;;;5071881;28;20036;-50
2024/02/15 10:19:24;;;;;;;8.05;2.60;;;23.30;99.90;;;;;;5071990;28;20401;-50
2024/02/15 10:21:57;;;;;;;6.78;3.25;;;23.30;99.90;;;;;;5070928;28;20107;-51
2024/02/15 10:24:27;;;;;;;5.97;2.85;;;23.40;99.90;;;;;;5071789;28;20023;-50
2024/02/15 10:27:04;;;;;;;8.45;2.67;;;23.30;99.90;;;;;;5071880;28;20038;-50
2024/02/15 10:29:30;;;;;;;8.18;2.90;;;23.40;99.90;;;;;;5071781;28;20487;-50
2024/02/15 10:32:00;;;;;;;7.93;3.20;;;23.40;99.90;;;;;;5071768;28;20029;-50
2024/02/15 10:34:30;;;;;;;5.03;2.67;;;23.30;99.90;;;;;;5071791;28;20556;-50
2024/02/15 10:37:14;;;;;;;8.98;3.28;;;23.40;99.90;;;;;;5071835;28;20027;-51
2024/02/15 10:39:40;;;;;;;8.35;3.20;;;23.30;99.90;;;;;;5071736;28;20016;-50
2024/02/15 10:42:07;;;;;;;7.97;3.80;;;23.30;99.90;;;;;;5071715;28;20024;-50
2024/02/15 10:44:35;;;;;;;8.00;3.00;;;23.40;99.90;;;;;;5071463;28;20749;-50
2024/02/15 10:47:06;;;;;;;5.88;3.05;;;23.40;99.90;;;;;;5071319;28;20043;-50
2024/02/15 10:49:33;;;;;;;7.63;2.65;;;23.40;99.90;;;;;;5071510;28;20488;-50
2024/02/15 10:52:04;;;;;;;7.07;2.92;;;23.30;99.90;;;;;;5071574;28;20112;-50
2024/02/15 10:54:42;;;;;;;8.48;2.83;;;23.40;99.90;;;;;;5071578;28;20032;-50
2024/02/15 10:57:10;;;;;;;8.35;3.75;;;23.40;99.90;;;;;;5070210;28;20048;-51
2024/02/15 10:59:42;;;;;;;4.90;2.55;;;23.30;99.90;;;;;;5071431;28;20448;-50
2024/02/15 11:02:25;;;;;;;7.18;2.97;;;23.30;99.90;;;;;;5074703;28;20056;-50
2024/02/15 11:04:56;;;;;;;5.55;2.88;;;23.40;99.90;;;;;;5075550;28;20016;-51
2024/02/15 11:07:28;;;;;;;6.22;3.03;;;23.30;99.90;;;;;;5075416;28;20020;-51
2024/02/15 11:09:58;;;;;;;10.75;2.97;;;23.40;99.90;;;;;;5075285;28;20027;-50
2024/02/15 11:12:28;;;;;;;6.35;2.90;;;23.40;99.90;;;;;;5075155;28;20440;-50
2024/02/15 11:14:54;;;;;;;9.00;3.22;;;23.40;99.90;;;;;;5075043;28;20472;-50
2024/02/15 11:17:57;;;;;;;8.75;3.10;;;23.40;99.90;;;;;;5074986;28;20032;-50
2024/02/15 11:20:35;;;;;;;7.13;3.20;;;23.50;99.90;;;;;;4993596;28;20458;-50
2024/02/15 11:23:03;;;;;;;9.13;3.25;;;23.50;99.90;;;;;;5062498;28;20033;-50
2024/02/15 11:25:37;;;;;;;4.90;3.25;;;23.50;99.90;;;;;;5074703;28;20381;-50
2024/02/15 11:28:21;;;;;;;8.68;3.67;;;23.50;99.90;;;;;;5074698;28;20056;-50
2024/02/15 11:30:50;;;;;;;5.22;2.90;;;23.50;99.90;;;;;;5074635;28;20018;-49
2024/02/15 11:33:30;;;;;;;4.97;2.90;;;23.50;99.90;;;;;;5074658;28;20504;-50
2024/02/15 11:36:05;;;;;;;5.53;2.67;;;23.50;99.90;;;;;;5074434;28;20028;-50
2024/02/15 11:38:31;;;;;;;9.02;2.90;;;23.50;99.90;;;;;;5074489;28;20051;-49
2024/02/15 11:40:57;;;;;;;11.15;3.20;;;23.40;99.90;;;;;;5074499;28;20538;-49
2024/02/15 11:43:49;;;;;;;6.00;2.85;;;23.40;99.90;;;;;;5074770;28;20024;-50
2024/02/15 11:46:17;;;;;;;12.77;3.67;;;23.40;99.90;;;;;;5073224;28;20020;-50
2024/02/15 11:48:44;;;;;;;7.65;3.25;;;23.40;99.90;;;;;;5074283;28;20046;-50
2024/02/15 11:51:11;;;;;;;6.25;3.25;;;23.40;99.90;;;;;;5073149;28;20064;-50
2024/02/15 11:53:37;;;;;;;7.93;2.80;;;23.40;99.90;;;;;;5075113;28;20036;-50
2024/02/15 11:56:04;;;;;;;7.00;3.08;;;23.40;99.90;;;;;;5075129;28;20492;-50
2024/02/15 11:58:51;;;;;;;5.10;2.75;;;23.40;99.90;;;;;;5075649;28;20539;-50
2024/02/15 12:21:02;;;;;;;6.50;3.03;;;23.40;99.90;;;;;;5073986;28;20039;-51
2024/02/15 12:23:30;;;;;;;6.00;2.80;;;23.40;99.90;;;;;;5073936;28;20394;-51
2024/02/15 12:25:56;;;;;;;5.95;2.50;;;23.40;99.90;;;;;;5073851;28;20017;-51
2024/02/15 12:28:22;;;;;;;5.05;2.95;;;23.40;99.90;;;;;;5072118;28;20047;-49
2024/02/15 12:30:56;;;;;;;6.38;2.60;;;23.30;99.90;;;;;;5073507;28;20473;-49
2024/02/15 12:33:22;;;;;;;4.90;2.30;;;23.30;99.90;;;;;;5073526;28;20070;-50
2024/02/15 12:35:50;;;;;;;5.80;2.53;;;23.30;99.90;;;;;;5073555;28;20468;-49
2024/02/15 12:38:16;;;;;;;4.75;2.53;;;23.30;99.90;;;;;;5073360;28;20048;-50
2024/02/15 12:40:43;;;;;;;5.60;2.45;;;23.30;99.90;;;;;;5073180;28;20035;-50
2024/02/15 12:43:09;;;;;;;5.85;2.42;;;23.40;99.90;;;;;;5073392;28;20024;-50
2024/02/15 12:45:41;;;;;;;5.43;2.53;;;23.40;99.90;;;;;;5073269;28;20040;-50
2024/02/15 12:48:10;;;;;;;4.25;2.63;;;23.30;99.90;;;;;;5073207;28;20035;-50
2024/02/15 12:50:36;;;;;;;5.88;2.70;;;23.40;99.90;;;;;;5073069;28;20047;-50
2024/02/15 12:53:02;;;;;;;5.47;2.42;;;23.40;99.90;;;;;;5073115;28;20036;-50
2024/02/15 12:55:34;;;;;;;4.50;2.75;;;23.40;99.90;;;;;;5072003;28;20103;-50
2024/02/15 12:58:04;;;;;;;5.78;2.83;;;23.30;99.90;;;;;;5071914;28;20028;-50
2024/02/15 13:00:33;;;;;;;6.15;2.30;;;23.30;99.90;;;;;;5073626;28;20025;-51
2024/02/15 13:03:00;;;;;;;9.40;2.67;;;23.30;99.90;;;;;;5071790;28;20048;-50
2024/02/15 13:05:26;;;;;;;7.72;2.53;;;23.30;99.90;;;;;;5072946;28;20111;-50
2024/02/15 13:07:57;;;;;;;11.75;2.72;;;23.30;99.90;;;;;;5072660;28;20058;-51
2024/02/15 13:10:25;;;;;;;9.73;3.58;;;23.30;99.90;;;;;;5072804;28;20080;-50
2024/02/15 13:12:55;;;;;;;7.22;4.53;;;23.30;99.90;;;;;;5072385;28;20500;-50
2024/02/15 13:15:22;;;;;;;8.63;4.43;;;23.30;99.90;;;;;;5072606;28;20029;-50
2024/02/15 13:17:48;;;;;;;6.67;2.77;;;23.30;99.90;;;;;;5071276;28;20393;-48
2024/02/15 13:20:15;;;;;;;17.42;4.32;;;23.30;99.90;;;;;;5071116;28;20269;-48
2024/02/15 13:22:43;;;;;;;8.93;3.72;;;23.30;99.90;;;;;;5072319;28;20020;-50